sensor_id;sensor_type;location;lat;lon;timestamp;temperature;humidity
2653;DHT22;1336;48.692;9.144;2023-05-10T05:00:13;14.80;97.20
2653;DHT22;1336;48.692;9.144;2023-05-10T05:01:05;14.80;97.20
2653;DHT22;1336;48.692;9.144;2023-05-10T05:01:57;14.80;97.20
2653;DHT22;1336;48.692;9.144;2023-05-10T05:02:48;14.80;97.20
2653;DHT22;1336;48.692;9.144;2023-05-10T05:03:39;14.80;97.20
2653;DHT22;1336;48.692;9.144;2023-05-10T05:04:31;14.80;97.20
2653;DHT22;1336;48.692;9.144;2023-05-10T05:05:21;14.90;97.20
2653;DHT22;1336;48.692;9.144;2023-05-10T05:06:13;14.90;97.20
2653;DHT22;1336;48.692;9.144;2023-05-10T05:07:05;14.90;97.20
2653;DHT22;1336;48.692;9.144;2023-05-10T05:07:56;14.90;97.20
2653;DHT22;1336;48.692;9.144;2023-05-10T05:08:47;14.90;97.20
2653;DHT22;1336;48.692;9.144;2023-05-10T05:09:39;15.00;97.20
2653;DHT22;1336;48.692;9.144;2023-05-10T05:10:31;15.00;97.20
2653;DHT22;1336;48.692;9.144;2023-05-10T05:11:22;15.00;97.20
2653;DHT22;1336;48.692;9.144;2023-05-10T05:12:13;15.10;97.20
2653;DHT22;1336;48.692;9.144;2023-05-10T05:13:04;15.10;97.20
2653;DHT22;1336;48.692;9.144;2023-05-10T05:13:56;15.10;97.20
2653;DHT22;1336;48.692;9.144;2023-05-10T05:14:49;15.10;97.20
2653;DHT22;1336;48.692;9.144;2023-05-10T05:15:42;15.10;97.20
2653;DHT22;1336;48.692;9.144;2023-05-10T05:16:32;15.10;97.20
2653;DHT22;1336;48.692;9.144;2023-05-10T05:17:24;15.20;97.20
2653;DHT22;1336;48.692;9.144;2023-05-10T05:18:15;15.20;97.20
2653;DHT22;1336;48.692;9.144;2023-05-10T05:19:06;15.20;97.20
2653;DHT22;1336;48.692;9.144;2023-05-10T05:19:58;15.20;97.20
2653;DHT22;1336;48.692;9.144;2023-05-10T05:20:48;15.20;97.20
2653;DHT22;1336;48.692;9.144;2023-05-10T05:21:40;15.20;97.20
2653;DHT22;1336;48.692;9.144;2023-05-10T05:22:31;15.30;97.20
2653;DHT22;1336;48.692;9.144;2023-05-10T05:23:23;15.30;97.20
2653;DHT22;1336;48.692;9.144;2023-05-10T05:24:15;15.30;97.20
2653;DHT22;1336;48.692;9.144;2023-05-10T05:25:07;15.30;97.20
2653;DHT22;1336;48.692;9.144;2023-05-10T05:25:58;15.30;97.20
2653;DHT22;1336;48.692;9.144;2023-05-10T05:26:50;15.20;97.20
2653;DHT22;1336;48.692;9.144;2023-05-10T05:27:40;15.20;97.20
2653;DHT22;1336;48.692;9.144;2023-05-10T05:28:32;15.20;97.20
2653;DHT22;1336;48.692;9.144;2023-05-10T05:29:27;15.20;97.20
2653;DHT22;1336;48.692;9.144;2023-05-10T05:30:19;15.20;97.20
2653;DHT22;1336;48.692;9.144;2023-05-10T05:31:11;15.20;97.20
2653;DHT22;1336;48.692;9.144;2023-05-10T05:32:04;15.20;97.20
2653;DHT22;1336;48.692;9.144;2023-05-10T05:32:55;15.20;97.20
2653;DHT22;1336;48.692;9.144;2023-05-10T05:33:47;15.20;97.20
2653;DHT22;1336;48.692;9.144;2023-05-10T05:34:38;15.20;97.20
2653;DHT22;1336;48.692;9.144;2023-05-10T05:35:30;15.30;97.20
2653;DHT22;1336;48.692;9.144;2023-05-10T05:36:20;15.30;97.20
2653;DHT22;1336;48.692;9.144;2023-05-10T05:37:13;15.30;97.20
2653;DHT22;1336;48.692;9.144;2023-05-10T05:38:04;15.30;97.20
2653;DHT22;1336;48.692;9.144;2023-05-10T05:38:56;15.30;97.20
2653;DHT22;1336;48.692;9.144;2023-05-10T05:39:47;15.30;97.20
2653;DHT22;1336;48.692;9.144;2023-05-10T05:40:39;15.30;97.20
2653;DHT22;1336;48.692;9.144;2023-05-10T05:41:30;15.30;97.20
2653;DHT22;1336;48.692;9.144;2023-05-10T05:42:21;15.30;97.20
2653;DHT22;1336;48.692;9.144;2023-05-10T05:43:12;15.30;97.20
2653;DHT22;1336;48.692;9.144;2023-05-10T05:44:04;15.30;97.20
2653;DHT22;1336;48.692;9.144;2023-05-10T05:44:55;15.30;97.20
2653;DHT22;1336;48.692;9.144;2023-05-10T05:45:46;15.30;97.20
2653;DHT22;1336;48.692;9.144;2023-05-10T05:46:39;15.30;97.20
2653;DHT22;1336;48.692;9.144;2023-05-10T05:47:30;15.30;97.20
2653;DHT22;1336;48.692;9.144;2023-05-10T05:48:21;15.30;97.20
2653;DHT22;1336;48.692;9.144;2023-05-10T05:49:13;15.30;97.20
2653;DHT22;1336;48.692;9.144;2023-05-10T05:50:05;15.30;97.20
2653;DHT22;1336;48.692;9.144;2023-05-10T05:50:57;15.30;97.20
2653;DHT22;1336;48.692;9.144;2023-05-10T05:51:48;15.30;97.20
2653;DHT22;1336;48.692;9.144;2023-05-10T05:52:40;15.30;97.20
2653;DHT22;1336;48.692;9.144;2023-05-10T05:53:30;15.40;97.20
2653;DHT22;1336;48.692;9.144;2023-05-10T05:54:22;15.40;97.20
2653;DHT22;1336;48.692;9.144;2023-05-10T05:55:13;15.40;97.20
2653;DHT22;1336;48.692;9.144;2023-05-10T05:56:05;15.40;97.20
2653;DHT22;1336;48.692;9.144;2023-05-10T05:56:56;15.40;97.20
2653;DHT22;1336;48.692;9.144;2023-05-10T05:57:48;15.50;97.20
2653;DHT22;1336;48.692;9.144;2023-05-10T05:58:39;15.50;97.20
2653;DHT22;1336;48.692;9.144;2023-05-10T05:59:30;15.50;97.20
2653;DHT22;1336;48.692;9.144;2023-05-10T06:00:21;15.50;97.20
2653;DHT22;1336;48.692;9.144;2023-05-10T06:01:13;15.60;97.20
2653;DHT22;1336;48.692;9.144;2023-05-10T06:02:05;15.60;97.20
2653;DHT22;1336;48.692;9.144;2023-05-10T06:02:57;15.60;97.20
2653;DHT22;1336;48.692;9.144;2023-05-10T06:03:48;15.70;97.20
2653;DHT22;1336;48.692;9.144;2023-05-10T06:04:40;15.70;97.20
2653;DHT22;1336;48.692;9.144;2023-05-10T06:05:30;15.70;97.20
2653;DHT22;1336;48.692;9.144;2023-05-10T06:06:22;15.70;97.20
2653;DHT22;1336;48.692;9.144;2023-05-10T06:07:14;15.80;97.20
2653;DHT22;1336;48.692;9.144;2023-05-10T06:08:04;15.80;97.20
2653;DHT22;1336;48.692;9.144;2023-05-10T06:08:56;15.80;97.20
2653;DHT22;1336;48.692;9.144;2023-05-10T06:09:47;15.80;97.20
2653;DHT22;1336;48.692;9.144;2023-05-10T06:10:39;15.90;97.20
2653;DHT22;1336;48.692;9.144;2023-05-10T06:11:29;15.90;97.20
2653;DHT22;1336;48.692;9.144;2023-05-10T06:12:22;15.90;97.20
2653;DHT22;1336;48.692;9.144;2023-05-10T06:13:13;16.00;97.20
2653;DHT22;1336;48.692;9.144;2023-05-10T06:14:05;16.00;97.20
2653;DHT22;1336;48.692;9.144;2023-05-10T06:14:57;16.00;97.20
2653;DHT22;1336;48.692;9.144;2023-05-10T06:15:49;16.00;97.20
2653;DHT22;1336;48.692;9.144;2023-05-10T06:16:39;16.10;97.20
2653;DHT22;1336;48.692;9.144;2023-05-10T06:17:32;16.10;97.20
2653;DHT22;1336;48.692;9.144;2023-05-10T06:18:23;16.10;97.20
2653;DHT22;1336;48.692;9.144;2023-05-10T06:19:15;16.10;97.20
2653;DHT22;1336;48.692;9.144;2023-05-10T06:20:07;16.20;97.20
2653;DHT22;1336;48.692;9.144;2023-05-10T06:20:59;16.20;97.20
2653;DHT22;1336;48.692;9.144;2023-05-10T06:21:50;16.20;97.20
2653;DHT22;1336;48.692;9.144;2023-05-10T06:22:42;16.30;97.20
2653;DHT22;1336;48.692;9.144;2023-05-10T06:23:32;16.30;97.20
2653;DHT22;1336;48.692;9.144;2023-05-10T06:24:24;16.30;97.20
2653;DHT22;1336;48.692;9.144;2023-05-10T06:25:15;16.30;97.20
2653;DHT22;1336;48.692;9.144;2023-05-10T06:26:08;16.30;97.20
2653;DHT22;1336;48.692;9.144;2023-05-10T06:26:59;16.30;97.20
2653;DHT22;1336;48.692;9.144;2023-05-10T06:27:50;16.30;97.20
2653;DHT22;1336;48.692;9.144;2023-05-10T06:28:45;16.30;97.20
2653;DHT22;1336;48.692;9.144;2023-05-10T06:29:37;16.30;97.20
2653;DHT22;1336;48.692;9.144;2023-05-10T06:30:28;16.30;97.20
2653;DHT22;1336;48.692;9.144;2023-05-10T06:31:19;16.30;97.20
2653;DHT22;1336;48.692;9.144;2023-05-10T06:32:11;16.40;97.20
2653;DHT22;1336;48.692;9.144;2023-05-10T06:33:03;16.40;97.20
2653;DHT22;1336;48.692;9.144;2023-05-10T06:33:55;16.40;97.20
2653;DHT22;1336;48.692;9.144;2023-05-10T06:34:46;16.40;97.20
2653;DHT22;1336;48.692;9.144;2023-05-10T06:35:37;16.40;97.20
2653;DHT22;1336;48.692;9.144;2023-05-10T06:36:29;16.40;97.20
2653;DHT22;1336;48.692;9.144;2023-05-10T06:37:21;16.40;97.20
2653;DHT22;1336;48.692;9.144;2023-05-10T06:38:11;16.40;97.20
2653;DHT22;1336;48.692;9.144;2023-05-10T06:39:03;16.50;97.20
2653;DHT22;1336;48.692;9.144;2023-05-10T06:39:54;16.50;97.20
2653;DHT22;1336;48.692;9.144;2023-05-10T06:40:45;16.50;97.20
2653;DHT22;1336;48.692;9.144;2023-05-10T06:41:36;16.50;97.20
2653;DHT22;1336;48.692;9.144;2023-05-10T06:42:28;16.50;97.20
2653;DHT22;1336;48.692;9.144;2023-05-10T06:43:18;16.50;97.20
2653;DHT22;1336;48.692;9.144;2023-05-10T06:44:10;16.50;97.20
2653;DHT22;1336;48.692;9.144;2023-05-10T06:45:01;16.50;97.20
2653;DHT22;1336;48.692;9.144;2023-05-10T06:45:53;16.40;97.20
2653;DHT22;1336;48.692;9.144;2023-05-10T06:46:44;16.40;97.20
2653;DHT22;1336;48.692;9.144;2023-05-10T06:47:35;16.40;97.20
2653;DHT22;1336;48.692;9.144;2023-05-10T06:48:27;16.40;97.20
2653;DHT22;1336;48.692;9.144;2023-05-10T06:49:19;16.30;97.20
2653;DHT22;1336;48.692;9.144;2023-05-10T06:50:10;16.30;97.20
2653;DHT22;1336;48.692;9.144;2023-05-10T06:51:02;16.30;97.20
2653;DHT22;1336;48.692;9.144;2023-05-10T06:51:53;16.20;97.20
2653;DHT22;1336;48.692;9.144;2023-05-10T06:52:45;16.20;97.20
2653;DHT22;1336;48.692;9.144;2023-05-10T06:53:36;16.10;97.20
2653;DHT22;1336;48.692;9.144;2023-05-10T06:54:27;16.10;97.20
2653;DHT22;1336;48.692;9.144;2023-05-10T06:55:18;16.10;97.20
2653;DHT22;1336;48.692;9.144;2023-05-10T06:56:10;16.00;97.20
2653;DHT22;1336;48.692;9.144;2023-05-10T06:57:01;16.00;97.20
2653;DHT22;1336;48.692;9.144;2023-05-10T06:57:53;16.00;97.20
2653;DHT22;1336;48.692;9.144;2023-05-10T06:58:44;16.00;97.20
2653;DHT22;1336;48.692;9.144;2023-05-10T06:59:36;16.00;97.20
2653;DHT22;1336;48.692;9.144;2023-05-10T07:00:26;16.00;97.20
2653;DHT22;1336;48.692;9.144;2023-05-10T07:01:18;16.00;97.20
2653;DHT22;1336;48.692;9.144;2023-05-10T07:02:09;16.10;97.20
2653;DHT22;1336;48.692;9.144;2023-05-10T07:03:00;16.10;97.20
2653;DHT22;1336;48.692;9.144;2023-05-10T07:03:53;16.20;97.20
2653;DHT22;1336;48.692;9.144;2023-05-10T07:04:47;16.30;97.20
2653;DHT22;1336;48.692;9.144;2023-05-10T07:05:37;16.30;97.20
2653;DHT22;1336;48.692;9.144;2023-05-10T07:06:29;16.40;97.20
2653;DHT22;1336;48.692;9.144;2023-05-10T07:07:20;16.40;97.20
2653;DHT22;1336;48.692;9.144;2023-05-10T07:08:11;16.50;97.20
2653;DHT22;1336;48.692;9.144;2023-05-10T07:09:03;16.50;97.20
2653;DHT22;1336;48.692;9.144;2023-05-10T07:09:55;16.60;97.20
2653;DHT22;1336;48.692;9.144;2023-05-10T07:10:47;16.60;97.20
2653;DHT22;1336;48.692;9.144;2023-05-10T07:11:38;16.60;97.20
2653;DHT22;1336;48.692;9.144;2023-05-10T07:12:30;16.70;97.20
2653;DHT22;1336;48.692;9.144;2023-05-10T07:13:21;16.70;97.20
2653;DHT22;1336;48.692;9.144;2023-05-10T07:14:12;16.70;97.20
2653;DHT22;1336;48.692;9.144;2023-05-10T07:15:04;16.70;97.20
2653;DHT22;1336;48.692;9.144;2023-05-10T07:15:56;16.70;97.20
2653;DHT22;1336;48.692;9.144;2023-05-10T07:16:46;16.70;97.20
2653;DHT22;1336;48.692;9.144;2023-05-10T07:17:38;16.80;97.20
2653;DHT22;1336;48.692;9.144;2023-05-10T07:18:29;16.70;97.20
2653;DHT22;1336;48.692;9.144;2023-05-10T07:19:22;16.70;97.20
2653;DHT22;1336;48.692;9.144;2023-05-10T07:20:13;16.70;97.20
2653;DHT22;1336;48.692;9.144;2023-05-10T07:21:04;16.80;97.20
2653;DHT22;1336;48.692;9.144;2023-05-10T07:21:55;16.80;97.20
2653;DHT22;1336;48.692;9.144;2023-05-10T07:22:47;16.80;97.20
2653;DHT22;1336;48.692;9.144;2023-05-10T07:23:38;16.80;97.20
2653;DHT22;1336;48.692;9.144;2023-05-10T07:24:29;16.90;97.20
2653;DHT22;1336;48.692;9.144;2023-05-10T07:25:21;16.90;97.20
2653;DHT22;1336;48.692;9.144;2023-05-10T07:26:13;16.90;97.20
2653;DHT22;1336;48.692;9.144;2023-05-10T07:27:05;16.90;97.20
2653;DHT22;1336;48.692;9.144;2023-05-10T07:27:56;16.90;97.20
2653;DHT22;1336;48.692;9.144;2023-05-10T07:28:47;16.90;97.20
2653;DHT22;1336;48.692;9.144;2023-05-10T07:29:39;17.00;97.20
2653;DHT22;1336;48.692;9.144;2023-05-10T07:30:30;17.00;97.20
2653;DHT22;1336;48.692;9.144;2023-05-10T07:31:21;17.00;97.20
2653;DHT22;1336;48.692;9.144;2023-05-10T07:32:12;17.00;97.20
2653;DHT22;1336;48.692;9.144;2023-05-10T07:33:04;17.00;97.20
2653;DHT22;1336;48.692;9.144;2023-05-10T07:33:55;17.00;97.20
2653;DHT22;1336;48.692;9.144;2023-05-10T07:34:48;17.00;97.20
2653;DHT22;1336;48.692;9.144;2023-05-10T07:35:39;16.90;97.20
2653;DHT22;1336;48.692;9.144;2023-05-10T07:36:30;16.90;97.20
2653;DHT22;1336;48.692;9.144;2023-05-10T07:37:21;16.90;97.20
2653;DHT22;1336;48.692;9.144;2023-05-10T07:38:13;16.90;97.20
2653;DHT22;1336;48.692;9.144;2023-05-10T07:39:03;16.90;97.20
2653;DHT22;1336;48.692;9.144;2023-05-10T07:39:55;16.90;97.20
2653;DHT22;1336;48.692;9.144;2023-05-10T07:40:46;16.90;97.20
2653;DHT22;1336;48.692;9.144;2023-05-10T07:41:38;16.90;97.20
2653;DHT22;1336;48.692;9.144;2023-05-10T07:42:29;17.00;97.20
2653;DHT22;1336;48.692;9.144;2023-05-10T07:43:20;17.00;97.20
2653;DHT22;1336;48.692;9.144;2023-05-10T07:44:11;17.00;97.20
2653;DHT22;1336;48.692;9.144;2023-05-10T07:45:03;17.00;97.20
2653;DHT22;1336;48.692;9.144;2023-05-10T07:45:54;17.00;97.20
2653;DHT22;1336;48.692;9.144;2023-05-10T07:46:47;17.00;97.20
2653;DHT22;1336;48.692;9.144;2023-05-10T07:47:38;17.00;97.20
2653;DHT22;1336;48.692;9.144;2023-05-10T07:48:30;17.00;97.20
2653;DHT22;1336;48.692;9.144;2023-05-10T07:49:21;17.00;97.20
2653;DHT22;1336;48.692;9.144;2023-05-10T07:50:15;17.10;97.20
2653;DHT22;1336;48.692;9.144;2023-05-10T07:51:06;17.10;97.20
2653;DHT22;1336;48.692;9.144;2023-05-10T07:51:59;17.10;97.20
2653;DHT22;1336;48.692;9.144;2023-05-10T07:52:50;17.10;97.20
2653;DHT22;1336;48.692;9.144;2023-05-10T07:53:42;17.10;97.20
2653;DHT22;1336;48.692;9.144;2023-05-10T07:54:32;17.10;97.20
2653;DHT22;1336;48.692;9.144;2023-05-10T07:55:24;17.10;97.20
2653;DHT22;1336;48.692;9.144;2023-05-10T07:56:23;17.00;97.20
2653;DHT22;1336;48.692;9.144;2023-05-10T07:57:17;17.00;97.20
2653;DHT22;1336;48.692;9.144;2023-05-10T07:58:08;17.00;97.20
2653;DHT22;1336;48.692;9.144;2023-05-10T07:59:00;17.00;97.20
2653;DHT22;1336;48.692;9.144;2023-05-10T07:59:51;17.00;97.20
2653;DHT22;1336;48.692;9.144;2023-05-10T08:00:43;17.00;97.20
2653;DHT22;1336;48.692;9.144;2023-05-10T08:01:34;17.00;97.20
2653;DHT22;1336;48.692;9.144;2023-05-10T08:02:26;17.00;97.20
2653;DHT22;1336;48.692;9.144;2023-05-10T08:03:16;17.00;97.20
2653;DHT22;1336;48.692;9.144;2023-05-10T08:04:08;17.00;97.20
2653;DHT22;1336;48.692;9.144;2023-05-10T08:04:59;17.00;97.20
2653;DHT22;1336;48.692;9.144;2023-05-10T08:05:52;17.00;97.20
2653;DHT22;1336;48.692;9.144;2023-05-10T08:06:43;17.00;97.20
2653;DHT22;1336;48.692;9.144;2023-05-10T08:07:34;16.90;97.20
2653;DHT22;1336;48.692;9.144;2023-05-10T08:08:25;17.00;97.20
2653;DHT22;1336;48.692;9.144;2023-05-10T08:09:17;17.00;97.20
2653;DHT22;1336;48.692;9.144;2023-05-10T08:10:08;17.00;97.20
2653;DHT22;1336;48.692;9.144;2023-05-10T08:11:01;17.00;97.20
2653;DHT22;1336;48.692;9.144;2023-05-10T08:11:52;17.00;97.20
2653;DHT22;1336;48.692;9.144;2023-05-10T08:12:43;17.00;97.20
2653;DHT22;1336;48.692;9.144;2023-05-10T08:13:34;17.10;97.20
2653;DHT22;1336;48.692;9.144;2023-05-10T08:14:28;17.10;97.20
2653;DHT22;1336;48.692;9.144;2023-05-10T08:15:19;17.10;97.20
2653;DHT22;1336;48.692;9.144;2023-05-10T08:16:11;17.20;97.20
2653;DHT22;1336;48.692;9.144;2023-05-10T08:17:02;17.20;97.20
2653;DHT22;1336;48.692;9.144;2023-05-10T08:17:54;17.20;97.20
2653;DHT22;1336;48.692;9.144;2023-05-10T08:18:45;17.20;97.20
2653;DHT22;1336;48.692;9.144;2023-05-10T08:19:38;17.20;97.20
2653;DHT22;1336;48.692;9.144;2023-05-10T08:20:28;17.30;97.20
2653;DHT22;1336;48.692;9.144;2023-05-10T08:21:21;17.30;97.20
2653;DHT22;1336;48.692;9.144;2023-05-10T08:22:12;17.40;97.20
2653;DHT22;1336;48.692;9.144;2023-05-10T08:23:04;17.40;97.20
2653;DHT22;1336;48.692;9.144;2023-05-10T08:23:55;17.40;97.20
2653;DHT22;1336;48.692;9.144;2023-05-10T08:24:46;17.50;97.20
2653;DHT22;1336;48.692;9.144;2023-05-10T08:25:37;17.50;97.20
2653;DHT22;1336;48.692;9.144;2023-05-10T08:26:29;17.50;97.20
2653;DHT22;1336;48.692;9.144;2023-05-10T08:27:19;17.60;97.20
2653;DHT22;1336;48.692;9.144;2023-05-10T08:28:11;17.60;97.20
2653;DHT22;1336;48.692;9.144;2023-05-10T08:29:02;17.70;97.20
2653;DHT22;1336;48.692;9.144;2023-05-10T08:29:54;17.70;97.20
2653;DHT22;1336;48.692;9.144;2023-05-10T08:30:44;17.80;97.20
2653;DHT22;1336;48.692;9.144;2023-05-10T08:31:36;17.90;97.20
2653;DHT22;1336;48.692;9.144;2023-05-10T08:32:27;17.90;97.20
2653;DHT22;1336;48.692;9.144;2023-05-10T08:33:19;17.90;97.20
2653;DHT22;1336;48.692;9.144;2023-05-10T08:34:10;18.00;97.20
2653;DHT22;1336;48.692;9.144;2023-05-10T08:35:01;17.90;97.20
2653;DHT22;1336;48.692;9.144;2023-05-10T08:35:52;18.00;97.20
2653;DHT22;1336;48.692;9.144;2023-05-10T08:36:45;18.00;97.20
2653;DHT22;1336;48.692;9.144;2023-05-10T08:37:36;18.00;97.20
2653;DHT22;1336;48.692;9.144;2023-05-10T08:38:28;18.10;97.20
2653;DHT22;1336;48.692;9.144;2023-05-10T08:39:19;18.10;97.20
2653;DHT22;1336;48.692;9.144;2023-05-10T08:40:11;18.10;97.20
2653;DHT22;1336;48.692;9.144;2023-05-10T08:41:02;18.10;97.20
2653;DHT22;1336;48.692;9.144;2023-05-10T08:41:58;18.10;97.20
2653;DHT22;1336;48.692;9.144;2023-05-10T08:42:57;18.10;97.20
2653;DHT22;1336;48.692;9.144;2023-05-10T08:43:50;18.20;97.20
2653;DHT22;1336;48.692;9.144;2023-05-10T08:44:41;18.20;97.20
2653;DHT22;1336;48.692;9.144;2023-05-10T08:45:37;18.20;97.20
2653;DHT22;1336;48.692;9.144;2023-05-10T08:46:28;18.30;97.20
2653;DHT22;1336;48.692;9.144;2023-05-10T08:47:21;18.30;97.20
2653;DHT22;1336;48.692;9.144;2023-05-10T08:48:12;18.20;97.20
2653;DHT22;1336;48.692;9.144;2023-05-10T08:49:04;18.20;97.20
2653;DHT22;1336;48.692;9.144;2023-05-10T08:49:57;18.20;97.20
2653;DHT22;1336;48.692;9.144;2023-05-10T08:50:53;18.20;97.20
2653;DHT22;1336;48.692;9.144;2023-05-10T08:51:49;18.20;97.20
2653;DHT22;1336;48.692;9.144;2023-05-10T08:52:41;18.20;97.20
2653;DHT22;1336;48.692;9.144;2023-05-10T08:53:34;18.20;97.20
2653;DHT22;1336;48.692;9.144;2023-05-10T08:54:26;18.20;97.20
2653;DHT22;1336;48.692;9.144;2023-05-10T08:55:18;18.20;97.20
2653;DHT22;1336;48.692;9.144;2023-05-10T08:56:09;18.30;97.20
2653;DHT22;1336;48.692;9.144;2023-05-10T08:57:01;18.30;97.20
2653;DHT22;1336;48.692;9.144;2023-05-10T08:57:52;18.30;97.20
2653;DHT22;1336;48.692;9.144;2023-05-10T08:58:44;18.30;97.20
2653;DHT22;1336;48.692;9.144;2023-05-10T08:59:36;18.30;97.20
2653;DHT22;1336;48.692;9.144;2023-05-10T09:00:29;18.30;97.20
2653;DHT22;1336;48.692;9.144;2023-05-10T09:01:22;18.30;97.20
2653;DHT22;1336;48.692;9.144;2023-05-10T09:02:14;18.30;97.20
2653;DHT22;1336;48.692;9.144;2023-05-10T09:03:05;18.40;97.20
2653;DHT22;1336;48.692;9.144;2023-05-10T09:03:56;18.40;97.20
2653;DHT22;1336;48.692;9.144;2023-05-10T09:04:49;18.40;97.20
2653;DHT22;1336;48.692;9.144;2023-05-10T09:05:40;18.50;97.20
2653;DHT22;1336;48.692;9.144;2023-05-10T09:06:33;18.50;97.20
2653;DHT22;1336;48.692;9.144;2023-05-10T09:07:25;18.50;97.20
2653;DHT22;1336;48.692;9.144;2023-05-10T09:08:18;18.50;97.20
2653;DHT22;1336;48.692;9.144;2023-05-10T09:09:09;18.50;97.20
2653;DHT22;1336;48.692;9.144;2023-05-10T09:10:01;18.40;97.20
2653;DHT22;1336;48.692;9.144;2023-05-10T09:10:52;18.50;97.20
2653;DHT22;1336;48.692;9.144;2023-05-10T09:11:44;18.40;97.20
2653;DHT22;1336;48.692;9.144;2023-05-10T09:12:35;18.40;97.20
2653;DHT22;1336;48.692;9.144;2023-05-10T09:13:27;18.50;97.20
2653;DHT22;1336;48.692;9.144;2023-05-10T09:14:18;18.50;97.20
2653;DHT22;1336;48.692;9.144;2023-05-10T09:15:11;18.50;97.20
2653;DHT22;1336;48.692;9.144;2023-05-10T09:16:03;18.50;97.20
2653;DHT22;1336;48.692;9.144;2023-05-10T09:16:55;18.50;97.20
2653;DHT22;1336;48.692;9.144;2023-05-10T09:17:47;18.50;97.20
2653;DHT22;1336;48.692;9.144;2023-05-10T09:18:40;18.60;97.20
2653;DHT22;1336;48.692;9.144;2023-05-10T09:19:31;18.60;97.20
2653;DHT22;1336;48.692;9.144;2023-05-10T09:20:22;18.60;97.20
2653;DHT22;1336;48.692;9.144;2023-05-10T09:21:13;18.70;97.20
2653;DHT22;1336;48.692;9.144;2023-05-10T09:22:05;18.70;97.20
2653;DHT22;1336;48.692;9.144;2023-05-10T09:22:57;18.70;97.20
2653;DHT22;1336;48.692;9.144;2023-05-10T09:23:49;18.70;97.20
2653;DHT22;1336;48.692;9.144;2023-05-10T09:24:42;18.70;97.20
2653;DHT22;1336;48.692;9.144;2023-05-10T09:25:35;18.70;97.20
2653;DHT22;1336;48.692;9.144;2023-05-10T09:26:28;18.70;97.20
2653;DHT22;1336;48.692;9.144;2023-05-10T09:27:26;18.70;97.20
2653;DHT22;1336;48.692;9.144;2023-05-10T09:28:18;18.70;97.20
2653;DHT22;1336;48.692;9.144;2023-05-10T09:29:09;18.70;97.20
2653;DHT22;1336;48.692;9.144;2023-05-10T09:30:01;18.70;97.20
2653;DHT22;1336;48.692;9.144;2023-05-10T09:30:53;18.70;97.20
2653;DHT22;1336;48.692;9.144;2023-05-10T09:31:47;18.70;97.20
2653;DHT22;1336;48.692;9.144;2023-05-10T09:32:39;18.70;97.20
2653;DHT22;1336;48.692;9.144;2023-05-10T09:33:43;18.70;97.20
2653;DHT22;1336;48.692;9.144;2023-05-10T09:34:34;18.70;97.20
2653;DHT22;1336;48.692;9.144;2023-05-10T09:35:31;18.70;97.20
2653;DHT22;1336;48.692;9.144;2023-05-10T09:36:22;18.70;97.20
2653;DHT22;1336;48.692;9.144;2023-05-10T09:37:13;18.70;97.20
2653;DHT22;1336;48.692;9.144;2023-05-10T09:38:06;18.80;97.20
2653;DHT22;1336;48.692;9.144;2023-05-10T09:38:57;18.80;97.20
2653;DHT22;1336;48.692;9.144;2023-05-10T09:39:54;18.80;97.20
2653;DHT22;1336;48.692;9.144;2023-05-10T09:40:52;18.90;97.20
2653;DHT22;1336;48.692;9.144;2023-05-10T09:41:44;18.90;97.20
2653;DHT22;1336;48.692;9.144;2023-05-10T09:42:36;18.90;97.20
2653;DHT22;1336;48.692;9.144;2023-05-10T09:43:27;18.80;97.20
2653;DHT22;1336;48.692;9.144;2023-05-10T09:44:18;18.80;97.20
2653;DHT22;1336;48.692;9.144;2023-05-10T09:45:10;18.70;97.20
2653;DHT22;1336;48.692;9.144;2023-05-10T09:46:08;18.70;97.20
2653;DHT22;1336;48.692;9.144;2023-05-10T09:46:59;18.70;97.20
2653;DHT22;1336;48.692;9.144;2023-05-10T09:47:51;18.70;97.20
2653;DHT22;1336;48.692;9.144;2023-05-10T09:48:43;18.70;97.20
2653;DHT22;1336;48.692;9.144;2023-05-10T09:49:35;18.70;97.20
2653;DHT22;1336;48.692;9.144;2023-05-10T09:50:27;18.70;97.20
2653;DHT22;1336;48.692;9.144;2023-05-10T09:51:19;18.70;97.20
2653;DHT22;1336;48.692;9.144;2023-05-10T09:52:10;18.70;97.20
2653;DHT22;1336;48.692;9.144;2023-05-10T09:53:03;18.80;97.20
2653;DHT22;1336;48.692;9.144;2023-05-10T09:54:10;18.80;97.20
2653;DHT22;1336;48.692;9.144;2023-05-10T09:55:01;18.90;97.20
2653;DHT22;1336;48.692;9.144;2023-05-10T09:55:54;18.90;97.20
2653;DHT22;1336;48.692;9.144;2023-05-10T09:56:45;19.00;97.20
2653;DHT22;1336;48.692;9.144;2023-05-10T09:57:37;19.10;97.20
2653;DHT22;1336;48.692;9.144;2023-05-10T09:58:28;19.20;97.20
2653;DHT22;1336;48.692;9.144;2023-05-10T09:59:20;19.20;97.20
2653;DHT22;1336;48.692;9.144;2023-05-10T10:00:16;19.30;97.20
2653;DHT22;1336;48.692;9.144;2023-05-10T10:01:11;19.30;97.20
2653;DHT22;1336;48.692;9.144;2023-05-10T10:02:02;19.40;97.20
2653;DHT22;1336;48.692;9.144;2023-05-10T10:02:55;19.50;97.20
2653;DHT22;1336;48.692;9.144;2023-05-10T10:03:46;19.60;97.20
2653;DHT22;1336;48.692;9.144;2023-05-10T10:04:39;19.70;97.20
2653;DHT22;1336;48.692;9.144;2023-05-10T10:05:30;19.90;97.20
2653;DHT22;1336;48.692;9.144;2023-05-10T10:06:22;20.00;97.20
2653;DHT22;1336;48.692;9.144;2023-05-10T10:07:13;20.10;97.20
2653;DHT22;1336;48.692;9.144;2023-05-10T10:08:05;20.20;97.20
2653;DHT22;1336;48.692;9.144;2023-05-10T10:08:56;20.30;97.20
2653;DHT22;1336;48.692;9.144;2023-05-10T10:09:49;20.40;97.20
2653;DHT22;1336;48.692;9.144;2023-05-10T10:10:41;20.50;97.20
2653;DHT22;1336;48.692;9.144;2023-05-10T10:11:35;20.70;97.20
2653;DHT22;1336;48.692;9.144;2023-05-10T10:12:26;20.80;97.20
2653;DHT22;1336;48.692;9.144;2023-05-10T10:13:19;20.90;97.20
2653;DHT22;1336;48.692;9.144;2023-05-10T10:14:11;20.90;97.20
2653;DHT22;1336;48.692;9.144;2023-05-10T10:15:04;21.00;97.20
2653;DHT22;1336;48.692;9.144;2023-05-10T10:15:57;21.00;97.20
2653;DHT22;1336;48.692;9.144;2023-05-10T10:16:49;21.00;97.20
2653;DHT22;1336;48.692;9.144;2023-05-10T10:17:41;21.00;97.20
2653;DHT22;1336;48.692;9.144;2023-05-10T10:18:33;21.00;97.20
2653;DHT22;1336;48.692;9.144;2023-05-10T10:19:24;21.00;97.20
2653;DHT22;1336;48.692;9.144;2023-05-10T10:20:17;21.00;97.20
2653;DHT22;1336;48.692;9.144;2023-05-10T10:21:08;21.00;97.20
2653;DHT22;1336;48.692;9.144;2023-05-10T10:22:00;21.00;97.20
2653;DHT22;1336;48.692;9.144;2023-05-10T10:22:51;21.10;97.20
2653;DHT22;1336;48.692;9.144;2023-05-10T10:23:43;21.10;97.20
2653;DHT22;1336;48.692;9.144;2023-05-10T10:24:34;21.10;97.20
2653;DHT22;1336;48.692;9.144;2023-05-10T10:25:27;21.10;97.20
2653;DHT22;1336;48.692;9.144;2023-05-10T10:26:18;21.10;97.20
2653;DHT22;1336;48.692;9.144;2023-05-10T10:27:19;21.10;97.20
2653;DHT22;1336;48.692;9.144;2023-05-10T10:28:20;21.10;97.20
2653;DHT22;1336;48.692;9.144;2023-05-10T10:29:23;21.10;97.20
2653;DHT22;1336;48.692;9.144;2023-05-10T10:30:35;21.10;97.20
2653;DHT22;1336;48.692;9.144;2023-05-10T10:31:34;21.10;97.20
2653;DHT22;1336;48.692;9.144;2023-05-10T10:32:33;21.10;97.20
2653;DHT22;1336;48.692;9.144;2023-05-10T10:33:39;21.10;97.20
2653;DHT22;1336;48.692;9.144;2023-05-10T10:34:31;21.10;97.20
2653;DHT22;1336;48.692;9.144;2023-05-10T10:35:23;21.10;97.20
2653;DHT22;1336;48.692;9.144;2023-05-10T10:36:15;21.00;97.20
2653;DHT22;1336;48.692;9.144;2023-05-10T10:37:07;20.90;97.20
2653;DHT22;1336;48.692;9.144;2023-05-10T10:37:57;20.90;97.20
2653;DHT22;1336;48.692;9.144;2023-05-10T10:38:59;20.80;97.20
2653;DHT22;1336;48.692;9.144;2023-05-10T10:39:51;20.80;97.20